Time;durP1;ratioP1;P1;durP2;ratioP2;P2;SDS_P1;SDS_P2;PMS_P1;PMS_P2;Temp;Humidity;BMP_temperature;BMP_pressure;BME280_temperature;BME280_humidity;BME280_pressure;Samples;Min_cycle;Max_cycle;Signal;HPM_P1;HPM_P2
2023/09/06 00:02:08;;;;;;;1.25;1.15;;;27.10;45.80;;;;;;5086368;27;45252;-68
2023/09/06 00:04:35;;;;;;;1.67;1.13;;;27.10;45.90;;;;;;5086204;27;45308;-69
2023/09/06 00:07:03;;;;;;;1.10;1.10;;;27.00;45.70;;;;;;5085806;27;46645;-70
2023/09/06 00:09:30;;;;;;;1.20;1.10;;;27.00;45.80;;;;;;5085984;27;45401;-69
2023/09/06 00:11:57;;;;;;;1.80;1.17;;;27.00;45.80;;;;;;5085817;27;45312;-69
2023/09/06 00:14:23;;;;;;;1.30;1.20;;;26.90;45.70;;;;;;5086120;27;45273;-68
2023/09/06 00:16:51;;;;;;;1.27;1.17;;;26.90;45.70;;;;;;5085540;27;45256;-69
2023/09/06 00:19:18;;;;;;;1.17;1.10;;;26.90;45.70;;;;;;5086052;27;45374;-69
2023/09/06 00:21:45;;;;;;;1.98;1.10;;;26.90;45.80;;;;;;5085774;27;45393;-69
2023/09/06 00:24:13;;;;;;;1.25;1.10;;;26.90;45.80;;;;;;5085755;27;45320;-69
2023/09/06 00:26:40;;;;;;;1.20;1.20;;;26.90;45.80;;;;;;5085584;27;45804;-68
2023/09/06 00:29:07;;;;;;;1.27;1.20;;;26.80;45.80;;;;;;5085786;27;45454;-69
2023/09/06 00:31:34;;;;;;;1.30;1.20;;;26.80;45.90;;;;;;5085695;27;45505;-69
2023/09/06 00:34:03;;;;;;;1.13;1.10;;;26.80;45.90;;;;;;5086057;27;45326;-69
2023/09/06 00:36:32;;;;;;;1.20;1.10;;;26.80;45.90;;;;;;5085489;27;46531;-69
2023/09/06 00:38:59;;;;;;;1.08;1.00;;;26.80;45.90;;;;;;5085408;27;45506;-69
2023/09/06 00:41:27;;;;;;;1.08;1.05;;;26.70;46.50;;;;;;5085092;27;46368;-68
2023/09/06 00:43:54;;;;;;;0.90;0.90;;;26.70;45.90;;;;;;5085688;27;45366;-69
2023/09/06 00:46:21;;;;;;;1.02;0.95;;;26.70;45.90;;;;;;5085163;27;46678;-69
2023/09/06 00:48:50;;;;;;;1.67;1.27;;;26.70;45.90;;;;;;5085214;27;45349;-68
2023/09/06 00:51:18;;;;;;;1.30;1.17;;;26.70;46.00;;;;;;5085599;27;45309;-69
2023/09/06 00:53:45;;;;;;;1.33;1.23;;;26.70;46.00;;;;;;5085749;27;45238;-69
2023/09/06 00:56:14;;;;;;;1.48;1.38;;;26.70;46.00;;;;;;5085529;27;46310;-69
2023/09/06 00:58:41;;;;;;;1.40;1.15;;;26.60;45.90;;;;;;5085395;27;45350;-69
2023/09/06 01:01:13;;;;;;;1.20;1.10;;;26.60;46.00;;;;;;5085390;27;45268;-69
2023/09/06 01:03:41;;;;;;;1.42;1.20;;;26.60;46.10;;;;;;5088866;27;45365;-68
2023/09/06 01:06:13;;;;;;;1.13;1.02;;;26.60;46.10;;;;;;5088623;27;46977;-69
2023/09/06 01:08:46;;;;;;;1.42;1.33;;;26.60;46.10;;;;;;5088860;27;45365;-68
2023/09/06 01:11:19;;;;;;;1.35;1.25;;;26.50;46.10;;;;;;5088761;27;45492;-69
2023/09/06 01:13:47;;;;;;;1.45;1.35;;;26.50;46.20;;;;;;5088968;27;45122;-69
2023/09/06 01:16:15;;;;;;;2.15;1.20;;;26.50;46.20;;;;;;5088090;27;46376;-69
2023/09/06 01:18:42;;;;;;;2.97;1.40;;;26.50;46.20;;;;;;5088198;27;45312;-68
2023/09/06 01:21:11;;;;;;;1.42;1.25;;;26.50;46.20;;;;;;5088615;27;45283;-69
2023/09/06 01:23:40;;;;;;;1.33;1.23;;;26.50;46.30;;;;;;5088839;27;45439;-69
2023/09/06 01:26:07;;;;;;;1.30;1.20;;;26.50;46.30;;;;;;5088618;27;45367;-69
2023/09/06 01:28:34;;;;;;;0.95;0.95;;;26.40;46.20;;;;;;5088362;27;45260;-69
2023/09/06 01:31:01;;;;;;;1.20;1.10;;;26.40;46.30;;;;;;5088352;27;45132;-69
2023/09/06 01:33:28;;;;;;;1.13;1.10;;;26.40;46.40;;;;;;5088636;27;45280;-68
2023/09/06 01:35:55;;;;;;;1.17;1.17;;;26.40;46.30;;;;;;5088292;27;45359;-69
2023/09/06 01:38:22;;;;;;;1.67;1.08;;;26.40;46.40;;;;;;5088242;27;45257;-69
2023/09/06 01:40:50;;;;;;;1.42;1.33;;;26.30;46.40;;;;;;5088399;27;45276;-69
2023/09/06 01:43:17;;;;;;;1.70;1.42;;;26.30;46.40;;;;;;5088503;27;45486;-69
2023/09/06 01:45:45;;;;;;;0.93;0.90;;;26.30;46.40;;;;;;5088099;27;46917;-69
2023/09/06 01:48:11;;;;;;;1.58;1.27;;;26.30;46.40;;;;;;5088157;27;45299;-69
2023/09/06 01:50:38;;;;;;;1.42;1.15;;;26.30;46.40;;;;;;5088041;27;45336;-69
2023/09/06 01:53:05;;;;;;;1.50;1.10;;;26.20;46.40;;;;;;5088443;27;45255;-69
2023/09/06 01:55:32;;;;;;;1.83;1.50;;;26.20;46.40;;;;;;5087829;27;46652;-69
2023/09/06 01:58:00;;;;;;;1.52;1.30;;;26.20;46.50;;;;;;5087965;27;45225;-69
2023/09/06 02:00:28;;;;;;;1.50;1.20;;;26.20;46.50;;;;;;5088041;27;45291;-69
2023/09/06 02:02:55;;;;;;;0.95;0.93;;;26.10;46.50;;;;;;5088476;27;45309;-69
2023/09/06 02:05:22;;;;;;;1.98;1.20;;;26.20;46.60;;;;;;5087593;27;47724;-69
2023/09/06 02:07:49;;;;;;;1.30;1.13;;;26.10;46.60;;;;;;5087889;27;45274;-69
2023/09/06 02:10:16;;;;;;;0.95;0.90;;;26.10;46.60;;;;;;5087956;27;45377;-69
2023/09/06 02:12:42;;;;;;;2.05;1.35;;;26.10;46.60;;;;;;5087625;27;45226;-68
2023/09/06 02:15:13;;;;;;;1.45;1.20;;;26.00;46.60;;;;;;5087886;27;45390;-70
2023/09/06 02:17:42;;;;;;;1.42;1.17;;;26.00;46.60;;;;;;5087522;27;45327;-70
2023/09/06 02:20:17;;;;;;;1.67;1.20;;;26.00;46.60;;;;;;5087704;27;45326;-69
2023/09/06 02:22:44;;;;;;;1.40;1.30;;;26.00;46.60;;;;;;5087857;27;45518;-69
2023/09/06 02:25:11;;;;;;;1.77;1.20;;;26.00;46.70;;;;;;5087166;27;47909;-69
2023/09/06 02:27:37;;;;;;;1.13;1.10;;;26.00;46.70;;;;;;5087498;27;45948;-69
2023/09/06 02:30:06;;;;;;;1.40;1.30;;;26.00;46.70;;;;;;5087903;27;45312;-69
2023/09/06 02:32:34;;;;;;;1.10;1.00;;;25.90;46.60;;;;;;5088056;27;45309;-70
2023/09/06 02:35:01;;;;;;;2.45;1.23;;;25.90;46.60;;;;;;5087743;27;46846;-69
2023/09/06 02:37:28;;;;;;;1.30;1.20;;;25.90;46.70;;;;;;5087424;27;45313;-69
2023/09/06 02:39:55;;;;;;;1.63;1.30;;;25.90;46.70;;;;;;5087354;27;45381;-70
2023/09/06 02:42:22;;;;;;;1.30;1.20;;;25.80;46.70;;;;;;5087306;27;45365;-69
2023/09/06 02:44:49;;;;;;;1.92;1.40;;;25.80;46.70;;;;;;5087296;27;45592;-68
2023/09/06 02:47:16;;;;;;;1.27;1.17;;;25.80;46.70;;;;;;5087277;27;45363;-69
2023/09/06 02:49:45;;;;;;;1.17;1.08;;;25.80;46.80;;;;;;5087327;27;45416;-68
2023/09/06 02:52:20;;;;;;;1.58;1.30;;;25.80;46.80;;;;;;5087333;28;45342;-69
2023/09/06 02:54:47;;;;;;;1.40;1.30;;;25.70;46.70;;;;;;5087004;27;46244;-68
2023/09/06 02:57:15;;;;;;;1.23;1.10;;;25.70;46.80;;;;;;5086780;27;45305;-67
2023/09/06 02:59:41;;;;;;;1.15;1.05;;;25.70;46.70;;;;;;5087037;27;45195;-68
2023/09/06 03:02:08;;;;;;;1.30;1.20;;;25.70;46.70;;;;;;5084697;27;45340;-68
2023/09/06 03:04:37;;;;;;;1.50;1.40;;;25.70;46.80;;;;;;5087016;27;46750;-70
2023/09/06 03:07:07;;;;;;;1.30;1.20;;;25.60;46.80;;;;;;5086901;27;45306;-69
2023/09/06 03:09:35;;;;;;;1.55;1.45;;;25.60;46.70;;;;;;5087428;27;45411;-68
2023/09/06 03:12:11;;;;;;;1.38;1.17;;;25.60;46.70;;;;;;5087040;27;45388;-68
2023/09/06 03:14:38;;;;;;;1.40;1.20;;;25.60;46.80;;;;;;5086997;27;45398;-69
2023/09/06 03:17:08;;;;;;;1.05;1.00;;;25.60;46.80;;;;;;5087199;27;45260;-68
2023/09/06 03:19:38;;;;;;;1.20;1.00;;;25.60;46.80;;;;;;5087433;27;45381;-68
2023/09/06 03:22:09;;;;;;;1.38;1.27;;;25.60;46.90;;;;;;5087457;27;45322;-69
2023/09/06 03:24:39;;;;;;;1.40;1.30;;;25.50;46.80;;;;;;5085958;27;46966;-69
2023/09/06 03:27:07;;;;;;;3.03;1.00;;;25.50;46.90;;;;;;5086615;27;45307;-68
2023/09/06 03:29:36;;;;;;;1.05;0.93;;;25.50;46.90;;;;;;5086747;27;45477;-69
2023/09/06 03:32:04;;;;;;;1.42;1.33;;;25.50;46.90;;;;;;5087145;27;45350;-69
2023/09/06 03:34:32;;;;;;;1.33;1.10;;;25.50;46.90;;;;;;5086690;27;45691;-70
2023/09/06 03:36:59;;;;;;;1.42;1.20;;;25.50;46.90;;;;;;5086480;27;45343;-68
2023/09/06 03:39:29;;;;;;;1.20;1.10;;;25.50;47.60;;;;;;5086605;27;45425;-68
2023/09/06 03:42:00;;;;;;;1.17;1.05;;;25.40;46.90;;;;;;5086485;27;45314;-68
2023/09/06 03:44:27;;;;;;;1.30;1.20;;;25.40;46.90;;;;;;5086425;27;47899;-68
2023/09/06 03:46:56;;;;;;;1.65;1.13;;;25.40;47.00;;;;;;5086309;27;45272;-68
2023/09/06 03:49:23;;;;;;;1.60;1.35;;;25.40;47.00;;;;;;5086458;27;45404;-68
2023/09/06 03:51:51;;;;;;;1.35;1.25;;;25.40;47.00;;;;;;5086569;27;45453;-68
2023/09/06 03:54:18;;;;;;;1.23;1.20;;;25.40;47.60;;;;;;5085793;27;48630;-68
2023/09/06 03:56:46;;;;;;;1.20;1.10;;;25.30;47.00;;;;;;5086144;27;45256;-68
2023/09/06 03:59:13;;;;;;;1.40;1.30;;;25.30;47.00;;;;;;5086403;27;45390;-68
2023/09/06 04:01:43;;;;;;;1.23;1.08;;;25.30;47.00;;;;;;5086326;27;45383;-69
2023/09/06 04:04:12;;;;;;;1.45;1.33;;;25.30;47.00;;;;;;5086092;27;48137;-68
2023/09/06 04:06:43;;;;;;;1.50;1.25;;;25.30;47.00;;;;;;5086064;27;45305;-68
2023/09/06 04:09:13;;;;;;;1.88;1.20;;;25.30;47.00;;;;;;5086449;27;45329;-69
2023/09/06 04:11:40;;;;;;;1.55;1.35;;;25.30;47.00;;;;;;5086302;27;45608;-68
2023/09/06 04:14:08;;;;;;;1.35;1.23;;;25.30;47.00;;;;;;5086120;27;45420;-68
2023/09/06 04:16:37;;;;;;;1.63;1.30;;;25.20;46.90;;;;;;5085811;27;45348;-68
2023/09/06 04:19:04;;;;;;;1.20;1.10;;;25.20;47.00;;;;;;5085909;28;45267;-69
2023/09/06 04:21:30;;;;;;;1.42;1.23;;;25.20;47.00;;;;;;5086174;27;45545;-68
2023/09/06 04:23:57;;;;;;;1.40;1.30;;;25.20;47.10;;;;;;5085947;27;46579;-68
2023/09/06 04:26:25;;;;;;;1.30;1.20;;;25.10;47.00;;;;;;5085890;27;45329;-68
2023/09/06 04:28:51;;;;;;;1.30;1.17;;;25.10;47.00;;;;;;5085995;27;45272;-68
2023/09/06 04:31:20;;;;;;;1.40;1.27;;;25.10;47.00;;;;;;5086178;27;45271;-68
2023/09/06 04:33:46;;;;;;;1.20;1.10;;;25.10;47.10;;;;;;5085346;27;45322;-69
2023/09/06 04:36:13;;;;;;;1.38;1.27;;;25.10;47.10;;;;;;5086490;27;45376;-68
2023/09/06 04:38:40;;;;;;;1.25;1.15;;;25.10;47.00;;;;;;5089120;27;45286;-68
2023/09/06 04:41:07;;;;;;;2.08;1.38;;;25.00;47.00;;;;;;5089188;27;45548;-67
2023/09/06 04:43:34;;;;;;;1.20;1.10;;;25.00;47.00;;;;;;5088708;27;45329;-68
2023/09/06 04:46:00;;;;;;;2.20;1.20;;;25.00;47.00;;;;;;5088817;27;45244;-68
2023/09/06 04:48:29;;;;;;;1.27;1.08;;;25.00;47.10;;;;;;5089058;27;45414;-68
2023/09/06 04:50:56;;;;;;;1.17;1.10;;;25.00;47.00;;;;;;5089116;27;45297;-67
2023/09/06 04:53:23;;;;;;;1.40;1.30;;;25.00;47.10;;;;;;5088571;27;46589;-67
2023/09/06 04:55:52;;;;;;;2.03;1.23;;;25.00;47.10;;;;;;5088845;27;45393;-69
2023/09/06 04:58:19;;;;;;;1.10;0.90;;;25.00;47.10;;;;;;5088650;27;45330;-69
2023/09/06 05:00:47;;;;;;;2.08;1.25;;;24.90;47.10;;;;;;5088829;27;45301;-69
2023/09/06 05:03:17;;;;;;;1.45;1.35;;;24.90;47.10;;;;;;5088588;27;45347;-69
2023/09/06 05:05:46;;;;;;;1.60;1.50;;;24.90;47.10;;;;;;5088566;27;45405;-68
2023/09/06 05:08:13;;;;;;;1.42;1.30;;;24.90;47.10;;;;;;5088587;27;45321;-69
2023/09/06 05:10:40;;;;;;;1.15;1.05;;;24.90;47.20;;;;;;5088668;27;45325;-69
2023/09/06 05:13:07;;;;;;;2.88;1.20;;;24.90;47.20;;;;;;5088392;27;46820;-69
2023/09/06 05:15:35;;;;;;;1.25;1.23;;;24.80;47.20;;;;;;5088375;27;45338;-69
2023/09/06 05:18:02;;;;;;;2.00;1.17;;;24.80;47.20;;;;;;5088470;27;45310;-69
2023/09/06 05:20:32;;;;;;;0.85;0.85;;;24.80;47.10;;;;;;5088571;27;45543;-68
2023/09/06 05:23:02;;;;;;;1.40;1.15;;;24.80;47.20;;;;;;5088199;27;46712;-69
2023/09/06 05:25:29;;;;;;;1.40;1.30;;;24.80;47.20;;;;;;5088364;27;45354;-69
2023/09/06 05:27:58;;;;;;;1.35;1.25;;;24.70;47.20;;;;;;5088156;27;45313;-69
2023/09/06 05:30:25;;;;;;;1.25;1.15;;;24.70;47.80;;;;;;5088346;27;45572;-69
2023/09/06 05:32:52;;;;;;;1.20;1.10;;;24.70;47.30;;;;;;5087992;27;46793;-69
2023/09/06 05:35:19;;;;;;;1.17;1.08;;;24.70;47.20;;;;;;5088122;27;45243;-68
2023/09/06 05:37:45;;;;;;;0.90;0.90;;;24.70;47.30;;;;;;5088035;27;45231;-69
2023/09/06 05:40:14;;;;;;;1.42;1.30;;;24.70;47.30;;;;;;5088311;27;45308;-69
2023/09/06 05:42:41;;;;;;;1.60;1.50;;;24.70;47.30;;;;;;5087614;27;46633;-69
2023/09/06 05:45:10;;;;;;;1.30;1.20;;;24.70;47.30;;;;;;5088128;27;45278;-69
2023/09/06 05:47:38;;;;;;;1.33;1.23;;;24.70;47.30;;;;;;5087210;27;45266;-69
2023/09/06 05:50:06;;;;;;;1.55;1.13;;;24.70;47.30;;;;;;5088155;27;45306;-69
2023/09/06 05:52:33;;;;;;;1.00;0.95;;;24.70;47.30;;;;;;5088129;27;46961;-69
2023/09/06 05:54:59;;;;;;;2.67;1.38;;;24.70;47.20;;;;;;5087744;27;45295;-69
2023/09/06 05:57:28;;;;;;;1.40;1.30;;;24.70;47.30;;;;;;5087788;27;45433;-69
2023/09/06 05:59:54;;;;;;;1.40;1.30;;;24.60;47.20;;;;;;5088219;27;45309;-69
2023/09/06 06:02:22;;;;;;;2.15;1.08;;;24.70;47.30;;;;;;5087492;27;45318;-69
2023/09/06 06:04:49;;;;;;;1.40;1.30;;;24.60;47.30;;;;;;5087615;27;45233;-69
2023/09/06 06:07:17;;;;;;;1.80;1.70;;;24.60;47.30;;;;;;5087693;27;45286;-69
2023/09/06 06:09:44;;;;;;;1.58;1.20;;;24.60;47.30;;;;;;5088380;27;45397;-70
2023/09/06 06:12:11;;;;;;;1.58;1.48;;;24.60;47.20;;;;;;5087664;27;45515;-69
2023/09/06 06:14:39;;;;;;;1.38;1.27;;;24.60;47.20;;;;;;5087590;27;45275;-69
2023/09/06 06:17:06;;;;;;;1.35;1.25;;;24.60;47.30;;;;;;5087471;27;45224;-70
2023/09/06 06:19:33;;;;;;;1.30;1.20;;;24.60;47.30;;;;;;5085028;27;45365;-69
2023/09/06 06:22:01;;;;;;;2.88;1.15;;;24.60;47.20;;;;;;5087406;27;45365;-69
2023/09/06 06:24:28;;;;;;;1.58;1.20;;;24.60;47.30;;;;;;5087286;27;45316;-69
2023/09/06 06:26:54;;;;;;;1.38;1.27;;;24.60;47.30;;;;;;5087426;27;45351;-69
2023/09/06 06:29:22;;;;;;;1.55;1.45;;;24.50;47.20;;;;;;5087403;27;45457;-69
2023/09/06 06:31:50;;;;;;;1.85;1.30;;;24.60;47.30;;;;;;5086948;27;45325;-69
2023/09/06 06:34:18;;;;;;;1.30;1.20;;;24.60;47.20;;;;;;5086865;27;45346;-69
2023/09/06 06:36:45;;;;;;;1.55;1.13;;;24.60;47.90;;;;;;5087078;27;45257;-69
2023/09/06 06:39:12;;;;;;;2.53;1.58;;;24.60;47.30;;;;;;5087435;27;45301;-69
2023/09/06 06:41:39;;;;;;;2.63;1.38;;;24.60;47.30;;;;;;5086701;27;45427;-70
2023/09/06 06:44:06;;;;;;;2.03;1.20;;;24.60;47.30;;;;;;5087008;27;45294;-69
2023/09/06 06:46:33;;;;;;;1.33;1.23;;;24.60;47.30;;;;;;5087007;27;45314;-70
2023/09/06 06:49:04;;;;;;;1.60;1.50;;;24.60;47.30;;;;;;5087109;27;45443;-69
2023/09/06 06:51:35;;;;;;;1.60;1.30;;;24.60;47.30;;;;;;5086926;27;46373;-69
2023/09/06 06:54:02;;;;;;;1.67;1.30;;;24.60;47.30;;;;;;5086729;27;45362;-69
2023/09/06 06:56:29;;;;;;;1.50;1.23;;;24.60;47.30;;;;;;5086872;27;45321;-69
2023/09/06 06:58:56;;;;;;;1.60;1.40;;;24.60;47.90;;;;;;5086303;27;45387;-69
2023/09/06 07:01:24;;;;;;;1.30;1.20;;;24.60;47.30;;;;;;5085947;27;45310;-69
2023/09/06 07:03:51;;;;;;;1.40;1.30;;;24.60;47.30;;;;;;5086623;27;45348;-69
2023/09/06 07:06:19;;;;;;;2.05;1.10;;;24.60;47.30;;;;;;5086978;27;45415;-68
2023/09/06 07:08:46;;;;;;;1.52;1.23;;;24.60;47.30;;;;;;5086746;27;45353;-69
2023/09/06 07:11:14;;;;;;;1.30;1.20;;;24.60;47.20;;;;;;5086258;27;45413;-69
2023/09/06 07:13:40;;;;;;;1.67;1.42;;;24.60;47.20;;;;;;5086541;27;45342;-69
2023/09/06 07:16:07;;;;;;;1.40;1.30;;;24.70;47.30;;;;;;5086520;27;45523;-69
2023/09/06 07:18:34;;;;;;;1.35;1.25;;;24.70;47.30;;;;;;5086601;27;45348;-69
2023/09/06 07:21:01;;;;;;;3.45;1.60;;;24.70;47.30;;;;;;5068184;27;46628;-69
2023/09/06 07:23:29;;;;;;;1.75;1.52;;;24.60;47.30;;;;;;5080655;28;45403;-72
2023/09/06 07:25:56;;;;;;;1.13;1.02;;;24.70;47.40;;;;;;5083827;27;45509;-72
2023/09/06 07:28:23;;;;;;;2.53;1.45;;;24.70;47.50;;;;;;5082855;27;45483;-70
2023/09/06 07:30:50;;;;;;;3.63;1.35;;;24.70;47.60;;;;;;5085702;27;46505;-70
2023/09/06 07:33:17;;;;;;;1.90;1.45;;;24.70;47.60;;;;;;5086151;27;45316;-72
2023/09/06 07:35:44;;;;;;;3.58;1.27;;;24.70;47.60;;;;;;5081500;28;45233;-70
2023/09/06 07:38:11;;;;;;;2.03;1.30;;;24.70;47.60;;;;;;5086373;27;45534;-70
2023/09/06 07:40:39;;;;;;;1.80;1.27;;;24.80;47.60;;;;;;5085041;27;45363;-71
2023/09/06 07:43:06;;;;;;;3.10;1.35;;;24.70;47.60;;;;;;5086608;27;45340;-72
2023/09/06 07:45:33;;;;;;;1.38;1.20;;;24.80;47.70;;;;;;5084279;27;45415;-70
2023/09/06 07:48:01;;;;;;;3.58;1.50;;;24.80;48.20;;;;;;5086460;27;45401;-68
2023/09/06 07:50:28;;;;;;;1.33;1.20;;;24.80;47.60;;;;;;5079933;27;46851;-68
2023/09/06 07:52:54;;;;;;;2.70;1.40;;;24.80;47.60;;;;;;5067833;28;45401;-66
2023/09/06 07:55:21;;;;;;;1.95;1.55;;;24.80;48.20;;;;;;5086345;27;45315;-67
2023/09/06 07:57:50;;;;;;;1.92;1.50;;;24.80;47.60;;;;;;5083484;27;45354;-70
2023/09/06 08:00:17;;;;;;;3.35;1.50;;;24.90;47.60;;;;;;5081257;27;47655;-68
2023/09/06 08:02:44;;;;;;;3.42;1.45;;;24.90;47.60;;;;;;5082313;28;45519;-67
2023/09/06 08:05:11;;;;;;;2.15;1.38;;;24.90;47.60;;;;;;5081948;27;45407;-70
2023/09/06 08:07:38;;;;;;;2.40;1.58;;;24.90;47.60;;;;;;5079105;27;45333;-70
2023/09/06 08:10:09;;;;;;;3.75;2.53;;;25.00;47.60;;;;;;5073566;27;45668;-71
2023/09/06 08:12:36;;;;;;;6.28;2.80;;;25.00;47.60;;;;;;5087585;27;45378;-70
2023/09/06 08:15:05;;;;;;;9.40;3.30;;;25.00;47.60;;;;;;5089822;27;45284;-71
2023/09/06 08:17:32;;;;;;;9.93;4.60;;;25.00;47.50;;;;;;5087147;27;45455;-70
2023/09/06 08:19:59;;;;;;;10.05;4.00;;;25.00;47.60;;;;;;5084678;27;45336;-71
2023/09/06 08:22:26;;;;;;;13.85;4.32;;;25.10;47.70;;;;;;5079015;27;45491;-70
2023/09/06 08:24:53;;;;;;;12.27;4.00;;;25.10;47.80;;;;;;5082984;28;45562;-71
2023/09/06 08:27:19;;;;;;;11.00;4.20;;;25.10;47.70;;;;;;5070540;27;45346;-70
2023/09/06 08:29:46;;;;;;;10.85;4.53;;;25.10;47.60;;;;;;5088482;27;46380;-71
2023/09/06 08:32:14;;;;;;;11.73;4.32;;;25.20;47.70;;;;;;5084529;27;45382;-70
2023/09/06 08:34:41;;;;;;;14.43;4.60;;;25.20;47.70;;;;;;5081896;28;45301;-71
2023/09/06 08:37:08;;;;;;;13.98;5.47;;;25.20;47.50;;;;;;5087973;27;45569;-69
2023/09/06 08:39:35;;;;;;;15.95;5.00;;;25.20;47.70;;;;;;5088192;27;45335;-70
2023/09/06 08:42:03;;;;;;;14.13;5.28;;;25.30;47.80;;;;;;5088053;27;45240;-71
2023/09/06 08:44:30;;;;;;;12.98;5.00;;;25.30;47.80;;;;;;5088071;27;45425;-69
2023/09/06 08:46:57;;;;;;;10.10;5.55;;;25.30;47.90;;;;;;5089313;27;45531;-70
2023/09/06 08:49:25;;;;;;;13.85;5.53;;;25.30;47.90;;;;;;5084499;27;46532;-68
2023/09/06 08:51:52;;;;;;;10.90;5.03;;;25.30;48.10;;;;;;5080445;28;45630;-70
2023/09/06 08:54:19;;;;;;;12.80;5.30;;;25.40;48.20;;;;;;5088580;27;45375;-69
2023/09/06 08:56:46;;;;;;;12.02;4.50;;;25.40;48.20;;;;;;5088360;27;45415;-70
2023/09/06 08:59:13;;;;;;;6.45;3.25;;;25.40;47.90;;;;;;5087932;28;46516;-69
2023/09/06 09:01:40;;;;;;;10.15;4.60;;;25.50;48.90;;;;;;5086758;27;45383;-69
2023/09/06 09:04:07;;;;;;;9.95;3.70;;;25.50;48.40;;;;;;5089378;27;45264;-69
2023/09/06 09:06:35;;;;;;;7.68;3.17;;;25.50;48.40;;;;;;5081853;27;45458;-69
2023/09/06 09:09:16;;;;;;;10.90;4.05;;;25.50;48.30;;;;;;5072674;28;45143;-69
2023/09/06 09:11:46;;;;;;;6.82;3.28;;;25.50;48.50;;;;;;5085736;27;45410;-70
2023/09/06 09:14:23;;;;;;;5.70;2.78;;;25.50;48.50;;;;;;5085093;27;45532;-71
2023/09/06 09:16:56;;;;;;;4.75;2.78;;;25.50;48.60;;;;;;5080109;27;45478;-70
2023/09/06 09:19:23;;;;;;;5.35;2.88;;;25.60;49.40;;;;;;5088047;27;45442;-70
2023/09/06 09:21:51;;;;;;;7.47;3.28;;;25.60;49.00;;;;;;5090625;27;45372;-70
2023/09/06 09:24:26;;;;;;;7.03;2.97;;;25.60;49.10;;;;;;5083356;27;45529;-68
2023/09/06 09:26:53;;;;;;;7.05;2.78;;;25.60;49.20;;;;;;5083175;27;45299;-69
2023/09/06 09:29:20;;;;;;;7.47;2.80;;;25.70;49.20;;;;;;5086192;27;45511;-70
2023/09/06 09:31:47;;;;;;;6.15;2.70;;;25.70;49.20;;;;;;5082830;27;45470;-70
2023/09/06 09:34:14;;;;;;;3.25;2.63;;;25.80;49.30;;;;;;5087882;27;45265;-70
2023/09/06 09:36:41;;;;;;;4.85;2.90;;;25.80;49.30;;;;;;5088452;27;45293;-70
2023/09/06 09:39:13;;;;;;;5.20;2.60;;;25.80;49.30;;;;;;5088185;27;47658;-70
2023/09/06 09:41:41;;;;;;;3.55;2.25;;;25.80;49.50;;;;;;5072071;27;45457;-70
2023/09/06 09:44:13;;;;;;;5.13;2.17;;;25.90;49.80;;;;;;5068040;28;45349;-70
2023/09/06 09:46:40;;;;;;;3.65;2.03;;;25.90;49.70;;;;;;5069019;28;45197;-70
2023/09/06 09:49:07;;;;;;;4.07;2.38;;;26.00;49.60;;;;;;5087754;27;46513;-71
2023/09/06 09:51:34;;;;;;;2.85;2.17;;;26.00;50.70;;;;;;5087828;27;45332;-72
2023/09/06 09:54:03;;;;;;;2.05;1.80;;;26.00;49.90;;;;;;5088180;27;45374;-71
2023/09/06 09:56:31;;;;;;;2.63;2.03;;;26.00;50.00;;;;;;5088263;27;45536;-69
2023/09/06 09:58:58;;;;;;;4.18;2.40;;;26.10;50.20;;;;;;5086497;27;45503;-71
2023/09/06 10:01:25;;;;;;;2.75;2.13;;;26.10;50.20;;;;;;5088207;27;45229;-70
2023/09/06 10:03:52;;;;;;;5.15;2.10;;;26.10;50.10;;;;;;5088238;27;45401;-73
2023/09/06 10:06:18;;;;;;;5.65;2.30;;;26.20;50.10;;;;;;5088021;27;45268;-72
2023/09/06 10:08:46;;;;;;;5.10;2.50;;;26.20;50.10;;;;;;5087456;27;46840;-72
2023/09/06 10:11:12;;;;;;;1.85;1.75;;;26.20;50.10;;;;;;5087531;27;45373;-71
2023/09/06 10:13:41;;;;;;;2.33;1.88;;;26.30;50.10;;;;;;5087777;27;45244;-71
2023/09/06 10:16:08;;;;;;;3.33;1.95;;;26.30;50.20;;;;;;5072588;27;45420;-71
2023/09/06 10:18:35;;;;;;;3.10;2.17;;;26.30;50.00;;;;;;5070470;28;45529;-70
2023/09/06 10:21:04;;;;;;;2.47;1.92;;;26.40;50.20;;;;;;5080649;28;45394;-69
2023/09/06 10:23:31;;;;;;;5.32;2.15;;;26.50;50.30;;;;;;5086739;28;45478;-70
2023/09/06 10:26:00;;;;;;;8.60;2.28;;;26.50;50.30;;;;;;5087724;27;45319;-70
2023/09/06 10:28:31;;;;;;;2.63;1.75;;;26.50;50.20;;;;;;5087618;27;45534;-74
2023/09/06 10:31:07;;;;;;;6.80;2.20;;;26.60;50.20;;;;;;5084597;27;45324;-71
2023/09/06 10:33:56;;;;;;;4.25;2.10;;;26.60;50.30;;;;;;5077102;27;45285;-70
2023/09/06 10:36:27;;;;;;;2.28;2.03;;;26.70;50.10;;;;;;5099160;27;45545;-72
2023/09/06 10:39:16;;;;;;;5.40;2.40;;;26.70;50.10;;;;;;5100747;27;45490;-70
2023/09/06 10:42:17;;;;;;;7.25;2.00;;;26.80;50.10;;;;;;5081611;27;45496;-71
2023/09/06 10:45:11;;;;;;;2.53;1.95;;;26.80;50.10;;;;;;5077750;28;45525;-71
2023/09/06 10:47:40;;;;;;;2.35;1.98;;;26.90;50.10;;;;;;5074495;28;45502;-70
2023/09/06 10:50:08;;;;;;;2.97;2.28;;;27.00;50.00;;;;;;5086742;27;46611;-70
2023/09/06 10:52:49;;;;;;;2.55;2.03;;;27.00;50.00;;;;;;5086809;27;45383;-70
2023/09/06 10:55:18;;;;;;;1.95;1.75;;;27.10;49.90;;;;;;5081697;28;45531;-70
2023/09/06 10:58:08;;;;;;;1.77;1.67;;;27.10;49.80;;;;;;5087402;27;45429;-69
2023/09/06 11:00:35;;;;;;;2.35;1.77;;;27.20;49.70;;;;;;5078687;27;45507;-71
2023/09/06 11:03:20;;;;;;;3.08;2.10;;;27.20;49.60;;;;;;5084473;27;45501;-71
2023/09/06 11:05:53;;;;;;;2.55;1.85;;;27.30;49.40;;;;;;5079704;28;45420;-70
2023/09/06 11:08:25;;;;;;;1.70;1.60;;;27.30;49.20;;;;;;5088594;27;45408;-71
2023/09/06 11:10:53;;;;;;;2.22;1.90;;;27.40;49.20;;;;;;5107115;27;46448;-70
2023/09/06 11:13:20;;;;;;;7.40;2.42;;;27.50;49.10;;;;;;5075503;27;45317;-69
2023/09/06 11:15:49;;;;;;;2.22;2.03;;;27.60;48.90;;;;;;5076153;28;45168;-70
2023/09/06 11:18:18;;;;;;;3.75;1.83;;;27.60;48.80;;;;;;5083403;27;45378;-71
2023/09/06 11:20:47;;;;;;;2.45;2.13;;;27.70;48.40;;;;;;5086538;27;46324;-70
2023/09/06 11:23:14;;;;;;;2.45;2.25;;;27.80;48.40;;;;;;5086148;27;45387;-69
2023/09/06 11:25:41;;;;;;;2.92;2.40;;;27.90;48.40;;;;;;5086478;27;45290;-70
2023/09/06 11:28:15;;;;;;;2.65;2.10;;;28.00;48.50;;;;;;5087139;27;45340;-73
2023/09/06 11:30:44;;;;;;;2.95;2.00;;;28.00;48.00;;;;;;5086604;27;46372;-70
2023/09/06 11:33:11;;;;;;;5.10;2.20;;;28.10;47.90;;;;;;5085429;27;45507;-69
2023/09/06 11:35:45;;;;;;;7.00;2.00;;;28.20;47.30;;;;;;5085554;27;45417;-69
2023/09/06 11:38:12;;;;;;;2.47;2.03;;;28.20;47.50;;;;;;5088162;27;45354;-70
2023/09/06 11:40:41;;;;;;;3.58;2.00;;;28.30;47.40;;;;;;5086838;27;45449;-70
2023/09/06 11:43:10;;;;;;;3.50;2.13;;;28.40;47.20;;;;;;5085587;27;46398;-72
2023/09/06 11:45:38;;;;;;;4.10;2.10;;;28.40;47.00;;;;;;5104515;27;45386;-70
2023/09/06 11:48:08;;;;;;;4.13;1.83;;;28.50;46.90;;;;;;5107026;27;45437;-70
2023/09/06 11:50:36;;;;;;;2.08;1.70;;;28.50;46.80;;;;;;5084479;27;45462;-70
2023/09/06 11:53:09;;;;;;;2.38;1.83;;;28.60;46.80;;;;;;5085307;27;45326;-69
2023/09/06 11:55:39;;;;;;;6.35;2.22;;;28.60;46.30;;;;;;5086057;27;45320;-71
2023/09/06 11:58:10;;;;;;;3.40;1.90;;;28.70;46.60;;;;;;5085235;27;45416;-71
2023/09/06 12:00:42;;;;;;;2.90;1.85;;;28.80;46.50;;;;;;5082895;27;45313;-72
2023/09/06 12:03:13;;;;;;;1.95;1.83;;;28.90;47.00;;;;;;5084912;27;45525;-72
2023/09/06 12:05:40;;;;;;;3.67;1.73;;;28.90;45.60;;;;;;5093857;27;45442;-71
2023/09/06 12:08:09;;;;;;;3.03;1.65;;;29.00;44.60;;;;;;5086403;27;45313;-71
2023/09/06 12:10:36;;;;;;;1.80;1.70;;;29.00;44.30;;;;;;5086501;27;45490;-71
2023/09/06 12:13:05;;;;;;;2.25;1.70;;;29.10;44.50;;;;;;5086265;27;45462;-71
2023/09/06 12:15:32;;;;;;;2.00;1.80;;;29.20;44.10;;;;;;5086156;27;45301;-72
2023/09/06 12:17:59;;;;;;;3.90;1.63;;;29.20;43.90;;;;;;5079903;27;45528;-68
2023/09/06 12:20:27;;;;;;;5.50;2.05;;;29.30;43.30;;;;;;5084372;27;45549;-68
2023/09/06 12:22:54;;;;;;;7.30;2.13;;;29.30;43.50;;;;;;5085402;27;45527;-69
2023/09/06 12:25:23;;;;;;;8.30;2.00;;;29.40;43.60;;;;;;5085612;27;45310;-68
2023/09/06 12:27:50;;;;;;;5.05;1.80;;;29.40;43.60;;;;;;5085618;27;45316;-68
2023/09/06 12:30:25;;;;;;;3.78;1.80;;;29.40;43.20;;;;;;5085227;27;45391;-69
2023/09/06 12:32:52;;;;;;;4.38;2.03;;;29.50;43.50;;;;;;5080568;27;45323;-69
2023/09/06 12:35:19;;;;;;;6.28;1.65;;;29.50;43.60;;;;;;5083565;27;45665;-71
2023/09/06 12:37:46;;;;;;;2.17;1.48;;;29.60;43.50;;;;;;5084162;27;45546;-70
2023/09/06 12:40:13;;;;;;;2.15;1.80;;;29.70;43.50;;;;;;5089255;27;46385;-70
2023/09/06 12:42:44;;;;;;;4.47;1.90;;;29.80;42.90;;;;;;5085753;27;45506;-70
2023/09/06 12:45:18;;;;;;;3.47;1.55;;;29.80;43.10;;;;;;5082661;27;45523;-70
2023/09/06 12:47:45;;;;;;;2.70;2.08;;;29.90;43.20;;;;;;5097000;27;45447;-70
2023/09/06 12:50:12;;;;;;;2.03;1.77;;;29.90;42.70;;;;;;5092142;27;46395;-72
2023/09/06 12:52:39;;;;;;;4.07;1.83;;;29.90;42.80;;;;;;5090044;27;45619;-71